sensor_id;sensor_type;location;lat;lon;timestamp;temperature;humidity
9975;DHT22;5028;50.974;4.968;2023-07-13T00:01:16;15.70;99.90
9975;DHT22;5028;50.974;4.968;2023-07-13T00:03:45;15.70;99.90
9975;DHT22;5028;50.974;4.968;2023-07-13T00:06:14;15.70;99.90
9975;DHT22;5028;50.974;4.968;2023-07-13T00:08:43;15.70;99.90
9975;DHT22;5028;50.974;4.968;2023-07-13T00:11:11;15.60;99.90
9975;DHT22;5028;50.974;4.968;2023-07-13T00:13:40;15.60;99.90
9975;DHT22;5028;50.974;4.968;2023-07-13T00:16:10;15.60;99.90
9975;DHT22;5028;50.974;4.968;2023-07-13T00:18:42;15.60;99.90
9975;DHT22;5028;50.974;4.968;2023-07-13T00:21:12;15.60;99.90
9975;DHT22;5028;50.974;4.968;2023-07-13T00:23:42;15.60;99.90
9975;DHT22;5028;50.974;4.968;2023-07-13T00:26:11;15.60;99.90
9975;DHT22;5028;50.974;4.968;2023-07-13T00:28:41;15.50;99.90
9975;DHT22;5028;50.974;4.968;2023-07-13T00:31:10;15.50;99.90
9975;DHT22;5028;50.974;4.968;2023-07-13T00:33:43;15.50;99.90
9975;DHT22;5028;50.974;4.968;2023-07-13T00:36:12;15.50;99.90
9975;DHT22;5028;50.974;4.968;2023-07-13T00:38:42;15.40;99.90
9975;DHT22;5028;50.974;4.968;2023-07-13T00:41:11;15.40;99.90
9975;DHT22;5028;50.974;4.968;2023-07-13T00:43:40;15.40;99.90
9975;DHT22;5028;50.974;4.968;2023-07-13T00:46:14;15.40;99.90
9975;DHT22;5028;50.974;4.968;2023-07-13T00:48:46;15.30;99.90
9975;DHT22;5028;50.974;4.968;2023-07-13T00:51:19;15.30;99.90
9975;DHT22;5028;50.974;4.968;2023-07-13T00:53:50;15.30;99.90
9975;DHT22;5028;50.974;4.968;2023-07-13T00:56:21;15.30;99.90
9975;DHT22;5028;50.974;4.968;2023-07-13T00:58:50;15.30;99.90
9975;DHT22;5028;50.974;4.968;2023-07-13T01:01:18;15.20;99.90
9975;DHT22;5028;50.974;4.968;2023-07-13T01:03:49;15.20;99.90
9975;DHT22;5028;50.974;4.968;2023-07-13T01:06:19;15.20;99.90
9975;DHT22;5028;50.974;4.968;2023-07-13T01:08:48;15.20;99.90
9975;DHT22;5028;50.974;4.968;2023-07-13T01:11:19;15.20;99.90
9975;DHT22;5028;50.974;4.968;2023-07-13T01:13:49;15.20;99.90
9975;DHT22;5028;50.974;4.968;2023-07-13T01:16:24;15.10;99.90
9975;DHT22;5028;50.974;4.968;2023-07-13T01:18:56;15.10;99.90
9975;DHT22;5028;50.974;4.968;2023-07-13T01:21:28;15.10;99.90
9975;DHT22;5028;50.974;4.968;2023-07-13T01:23:57;15.10;99.90
9975;DHT22;5028;50.974;4.968;2023-07-13T01:26:26;15.10;99.90
9975;DHT22;5028;50.974;4.968;2023-07-13T01:28:55;15.00;99.90
9975;DHT22;5028;50.974;4.968;2023-07-13T01:31:24;15.00;99.90
9975;DHT22;5028;50.974;4.968;2023-07-13T01:33:53;14.90;99.90
9975;DHT22;5028;50.974;4.968;2023-07-13T01:36:24;15.00;99.90
9975;DHT22;5028;50.974;4.968;2023-07-13T01:38:54;14.90;99.90
9975;DHT22;5028;50.974;4.968;2023-07-13T01:41:23;14.90;99.90
9975;DHT22;5028;50.974;4.968;2023-07-13T01:43:52;14.80;99.90
9975;DHT22;5028;50.974;4.968;2023-07-13T01:46:21;14.80;99.90
9975;DHT22;5028;50.974;4.968;2023-07-13T01:48:50;14.80;99.90
9975;DHT22;5028;50.974;4.968;2023-07-13T01:51:20;14.80;99.90
9975;DHT22;5028;50.974;4.968;2023-07-13T01:53:48;14.80;99.90
9975;DHT22;5028;50.974;4.968;2023-07-13T01:56:20;14.80;99.90
9975;DHT22;5028;50.974;4.968;2023-07-13T01:58:49;14.80;99.90
9975;DHT22;5028;50.974;4.968;2023-07-13T02:01:18;14.80;99.90
9975;DHT22;5028;50.974;4.968;2023-07-13T02:03:46;14.80;99.90
9975;DHT22;5028;50.974;4.968;2023-07-13T02:06:15;14.70;99.90
9975;DHT22;5028;50.974;4.968;2023-07-13T02:08:44;14.70;99.90
9975;DHT22;5028;50.974;4.968;2023-07-13T02:11:12;14.70;99.90
9975;DHT22;5028;50.974;4.968;2023-07-13T02:13:43;14.70;99.90
9975;DHT22;5028;50.974;4.968;2023-07-13T02:16:11;14.70;99.90
9975;DHT22;5028;50.974;4.968;2023-07-13T02:18:41;14.60;99.90
9975;DHT22;5028;50.974;4.968;2023-07-13T02:21:09;14.60;99.90
9975;DHT22;5028;50.974;4.968;2023-07-13T02:23:38;14.60;99.90
9975;DHT22;5028;50.974;4.968;2023-07-13T02:26:06;14.60;99.90
9975;DHT22;5028;50.974;4.968;2023-07-13T02:28:35;14.60;99.90
9975;DHT22;5028;50.974;4.968;2023-07-13T02:31:07;14.60;99.90
9975;DHT22;5028;50.974;4.968;2023-07-13T02:33:36;14.60;99.90
9975;DHT22;5028;50.974;4.968;2023-07-13T02:36:05;14.60;99.90
9975;DHT22;5028;50.974;4.968;2023-07-13T02:38:35;14.50;99.90
9975;DHT22;5028;50.974;4.968;2023-07-13T02:41:04;14.50;99.90
9975;DHT22;5028;50.974;4.968;2023-07-13T02:43:33;14.50;99.90
9975;DHT22;5028;50.974;4.968;2023-07-13T02:46:02;14.60;99.90
9975;DHT22;5028;50.974;4.968;2023-07-13T02:48:38;14.60;99.90
9975;DHT22;5028;50.974;4.968;2023-07-13T02:51:07;14.70;99.90
9975;DHT22;5028;50.974;4.968;2023-07-13T02:53:36;14.70;99.90
9975;DHT22;5028;50.974;4.968;2023-07-13T02:56:05;14.70;99.90
9975;DHT22;5028;50.974;4.968;2023-07-13T02:58:35;14.70;99.90
9975;DHT22;5028;50.974;4.968;2023-07-13T03:01:09;14.80;99.90
9975;DHT22;5028;50.974;4.968;2023-07-13T03:03:39;14.80;99.90
9975;DHT22;5028;50.974;4.968;2023-07-13T03:06:08;14.80;99.90
9975;DHT22;5028;50.974;4.968;2023-07-13T03:08:38;14.90;99.90
9975;DHT22;5028;50.974;4.968;2023-07-13T03:11:08;14.80;99.90
9975;DHT22;5028;50.974;4.968;2023-07-13T03:13:38;14.90;99.90
9975;DHT22;5028;50.974;4.968;2023-07-13T03:16:07;14.90;99.90
9975;DHT22;5028;50.974;4.968;2023-07-13T03:18:38;14.90;99.90
9975;DHT22;5028;50.974;4.968;2023-07-13T03:21:07;14.90;99.90
9975;DHT22;5028;50.974;4.968;2023-07-13T03:23:36;14.90;99.90
9975;DHT22;5028;50.974;4.968;2023-07-13T03:26:07;14.90;99.90
9975;DHT22;5028;50.974;4.968;2023-07-13T03:28:37;15.00;99.90
9975;DHT22;5028;50.974;4.968;2023-07-13T03:31:08;15.00;99.90
9975;DHT22;5028;50.974;4.968;2023-07-13T03:33:38;15.10;99.90
9975;DHT22;5028;50.974;4.968;2023-07-13T03:36:12;15.00;99.90
9975;DHT22;5028;50.974;4.968;2023-07-13T03:38:41;15.10;99.90
9975;DHT22;5028;50.974;4.968;2023-07-13T03:41:10;15.10;99.90
9975;DHT22;5028;50.974;4.968;2023-07-13T03:43:39;15.10;99.90
9975;DHT22;5028;50.974;4.968;2023-07-13T03:46:07;15.10;99.90
9975;DHT22;5028;50.974;4.968;2023-07-13T03:48:36;15.10;99.90
9975;DHT22;5028;50.974;4.968;2023-07-13T03:51:09;15.20;99.90
9975;DHT22;5028;50.974;4.968;2023-07-13T03:53:39;15.20;99.90
9975;DHT22;5028;50.974;4.968;2023-07-13T03:56:09;15.20;99.90
9975;DHT22;5028;50.974;4.968;2023-07-13T03:58:39;15.20;99.90
9975;DHT22;5028;50.974;4.968;2023-07-13T04:01:09;15.20;99.90
9975;DHT22;5028;50.974;4.968;2023-07-13T04:03:38;15.20;99.90
9975;DHT22;5028;50.974;4.968;2023-07-13T04:06:19;15.20;99.90
9975;DHT22;5028;50.974;4.968;2023-07-13T04:08:50;15.20;99.90
9975;DHT22;5028;50.974;4.968;2023-07-13T04:11:20;15.30;99.90
9975;DHT22;5028;50.974;4.968;2023-07-13T04:13:50;15.20;99.90
9975;DHT22;5028;50.974;4.968;2023-07-13T04:16:19;15.30;99.90
9975;DHT22;5028;50.974;4.968;2023-07-13T04:18:49;15.20;99.90
9975;DHT22;5028;50.974;4.968;2023-07-13T04:21:23;15.30;99.90
9975;DHT22;5028;50.974;4.968;2023-07-13T04:23:52;15.30;99.90
9975;DHT22;5028;50.974;4.968;2023-07-13T04:26:22;15.40;99.90
9975;DHT22;5028;50.974;4.968;2023-07-13T04:28:51;15.30;99.90
9975;DHT22;5028;50.974;4.968;2023-07-13T04:31:21;15.30;99.90
9975;DHT22;5028;50.974;4.968;2023-07-13T04:33:50;15.30;99.90
9975;DHT22;5028;50.974;4.968;2023-07-13T04:36:20;15.30;99.90
9975;DHT22;5028;50.974;4.968;2023-07-13T04:38:50;15.30;99.90
9975;DHT22;5028;50.974;4.968;2023-07-13T04:41:19;15.30;99.90
9975;DHT22;5028;50.974;4.968;2023-07-13T04:43:48;15.30;99.90
9975;DHT22;5028;50.974;4.968;2023-07-13T04:46:17;15.30;99.90
9975;DHT22;5028;50.974;4.968;2023-07-13T04:48:49;15.30;99.90
9975;DHT22;5028;50.974;4.968;2023-07-13T04:51:17;15.40;99.90
9975;DHT22;5028;50.974;4.968;2023-07-13T04:53:47;15.40;99.90
9975;DHT22;5028;50.974;4.968;2023-07-13T04:56:20;15.40;99.90
9975;DHT22;5028;50.974;4.968;2023-07-13T04:58:48;15.50;99.90
9975;DHT22;5028;50.974;4.968;2023-07-13T05:01:17;15.50;99.90
9975;DHT22;5028;50.974;4.968;2023-07-13T05:03:47;15.50;99.90
9975;DHT22;5028;50.974;4.968;2023-07-13T05:06:16;15.50;99.90
9975;DHT22;5028;50.974;4.968;2023-07-13T05:08:45;15.50;99.90
9975;DHT22;5028;50.974;4.968;2023-07-13T05:11:13;15.60;99.90
9975;DHT22;5028;50.974;4.968;2023-07-13T05:13:45;15.60;99.90
9975;DHT22;5028;50.974;4.968;2023-07-13T05:16:14;15.60;99.90
9975;DHT22;5028;50.974;4.968;2023-07-13T05:18:42;15.70;99.90
9975;DHT22;5028;50.974;4.968;2023-07-13T05:21:11;15.70;99.90
9975;DHT22;5028;50.974;4.968;2023-07-13T05:23:41;15.70;99.90
9975;DHT22;5028;50.974;4.968;2023-07-13T05:26:10;15.70;99.90
9975;DHT22;5028;50.974;4.968;2023-07-13T05:28:39;15.80;99.90
9975;DHT22;5028;50.974;4.968;2023-07-13T05:31:10;15.80;99.90
9975;DHT22;5028;50.974;4.968;2023-07-13T05:33:39;15.80;99.90
9975;DHT22;5028;50.974;4.968;2023-07-13T05:36:08;15.80;99.90
9975;DHT22;5028;50.974;4.968;2023-07-13T05:38:37;15.80;99.90
9975;DHT22;5028;50.974;4.968;2023-07-13T05:41:07;15.80;99.90
9975;DHT22;5028;50.974;4.968;2023-07-13T05:43:36;15.80;99.90
9975;DHT22;5028;50.974;4.968;2023-07-13T05:46:05;15.90;99.90
9975;DHT22;5028;50.974;4.968;2023-07-13T05:48:35;15.90;99.90
9975;DHT22;5028;50.974;4.968;2023-07-13T05:51:04;16.00;99.90
9975;DHT22;5028;50.974;4.968;2023-07-13T05:53:34;16.10;99.90
9975;DHT22;5028;50.974;4.968;2023-07-13T05:56:03;16.10;99.90
9975;DHT22;5028;50.974;4.968;2023-07-13T05:58:32;16.20;99.90
9975;DHT22;5028;50.974;4.968;2023-07-13T06:01:03;16.30;99.90
9975;DHT22;5028;50.974;4.968;2023-07-13T06:03:34;16.30;99.90
9975;DHT22;5028;50.974;4.968;2023-07-13T06:06:05;16.40;99.90
9975;DHT22;5028;50.974;4.968;2023-07-13T06:08:35;16.40;99.90
9975;DHT22;5028;50.974;4.968;2023-07-13T06:11:04;16.50;99.90
9975;DHT22;5028;50.974;4.968;2023-07-13T06:13:33;16.50;99.90
9975;DHT22;5028;50.974;4.968;2023-07-13T06:16:03;16.60;99.90
9975;DHT22;5028;50.974;4.968;2023-07-13T06:18:33;16.70;99.90
9975;DHT22;5028;50.974;4.968;2023-07-13T06:21:06;16.60;99.90
9975;DHT22;5028;50.974;4.968;2023-07-13T06:23:35;16.70;99.90
9975;DHT22;5028;50.974;4.968;2023-07-13T06:26:05;16.80;99.90
9975;DHT22;5028;50.974;4.968;2023-07-13T06:28:35;16.80;99.90
9975;DHT22;5028;50.974;4.968;2023-07-13T06:31:06;16.90;99.90
9975;DHT22;5028;50.974;4.968;2023-07-13T06:33:36;16.90;99.90
9975;DHT22;5028;50.974;4.968;2023-07-13T06:36:08;17.00;99.90
9975;DHT22;5028;50.974;4.968;2023-07-13T06:38:37;17.10;99.90
9975;DHT22;5028;50.974;4.968;2023-07-13T06:41:07;17.20;99.90
9975;DHT22;5028;50.974;4.968;2023-07-13T06:43:37;17.20;99.90
9975;DHT22;5028;50.974;4.968;2023-07-13T06:46:06;17.30;99.90
9975;DHT22;5028;50.974;4.968;2023-07-13T06:48:35;17.30;99.90
9975;DHT22;5028;50.974;4.968;2023-07-13T06:51:04;17.40;99.90
9975;DHT22;5028;50.974;4.968;2023-07-13T06:53:34;17.30;99.90
9975;DHT22;5028;50.974;4.968;2023-07-13T06:56:03;17.30;99.90
9975;DHT22;5028;50.974;4.968;2023-07-13T06:58:34;17.30;99.90
9975;DHT22;5028;50.974;4.968;2023-07-13T07:01:03;17.30;99.90
9975;DHT22;5028;50.974;4.968;2023-07-13T07:03:34;17.40;99.90
9975;DHT22;5028;50.974;4.968;2023-07-13T07:06:11;17.50;99.90
9975;DHT22;5028;50.974;4.968;2023-07-13T07:08:42;17.50;99.90
9975;DHT22;5028;50.974;4.968;2023-07-13T07:11:13;17.60;99.90
9975;DHT22;5028;50.974;4.968;2023-07-13T07:13:43;17.60;99.90
9975;DHT22;5028;50.974;4.968;2023-07-13T07:16:13;17.80;99.90
9975;DHT22;5028;50.974;4.968;2023-07-13T07:18:42;17.90;99.90
9975;DHT22;5028;50.974;4.968;2023-07-13T07:21:12;18.00;99.90
9975;DHT22;5028;50.974;4.968;2023-07-13T07:23:42;18.20;99.90
9975;DHT22;5028;50.974;4.968;2023-07-13T07:26:11;18.20;99.90
9975;DHT22;5028;50.974;4.968;2023-07-13T07:28:40;18.30;99.90
9975;DHT22;5028;50.974;4.968;2023-07-13T07:31:15;18.50;99.90
9975;DHT22;5028;50.974;4.968;2023-07-13T07:33:46;18.60;99.90
9975;DHT22;5028;50.974;4.968;2023-07-13T07:36:17;18.70;99.90
9975;DHT22;5028;50.974;4.968;2023-07-13T07:38:50;18.80;99.90
9975;DHT22;5028;50.974;4.968;2023-07-13T07:41:19;18.80;99.90
9975;DHT22;5028;50.974;4.968;2023-07-13T07:43:50;18.90;99.90
9975;DHT22;5028;50.974;4.968;2023-07-13T07:46:19;18.90;99.90
9975;DHT22;5028;50.974;4.968;2023-07-13T07:48:48;18.90;99.90
9975;DHT22;5028;50.974;4.968;2023-07-13T07:51:16;19.00;99.90
9975;DHT22;5028;50.974;4.968;2023-07-13T07:53:48;19.10;99.90
9975;DHT22;5028;50.974;4.968;2023-07-13T07:56:17;19.30;99.90
9975;DHT22;5028;50.974;4.968;2023-07-13T07:58:49;19.40;99.90
9975;DHT22;5028;50.974;4.968;2023-07-13T08:01:20;19.50;99.90
9975;DHT22;5028;50.974;4.968;2023-07-13T08:03:51;19.60;99.90
9975;DHT22;5028;50.974;4.968;2023-07-13T08:06:24;19.70;99.90
9975;DHT22;5028;50.974;4.968;2023-07-13T08:08:55;19.80;99.90
9975;DHT22;5028;50.974;4.968;2023-07-13T08:11:26;20.00;99.90
9975;DHT22;5028;50.974;4.968;2023-07-13T08:13:57;20.00;99.90
9975;DHT22;5028;50.974;4.968;2023-07-13T08:16:26;20.00;99.90
9975;DHT22;5028;50.974;4.968;2023-07-13T08:18:55;20.00;99.90
9975;DHT22;5028;50.974;4.968;2023-07-13T08:21:24;20.00;99.90
9975;DHT22;5028;50.974;4.968;2023-07-13T08:23:53;20.00;99.90
9975;DHT22;5028;50.974;4.968;2023-07-13T08:26:21;20.20;99.90
9975;DHT22;5028;50.974;4.968;2023-07-13T08:28:51;20.30;99.90
9975;DHT22;5028;50.974;4.968;2023-07-13T08:31:20;20.40;99.90
9975;DHT22;5028;50.974;4.968;2023-07-13T08:33:48;20.60;99.90
9975;DHT22;5028;50.974;4.968;2023-07-13T08:36:25;20.90;99.90
9975;DHT22;5028;50.974;4.968;2023-07-13T08:38:55;21.10;99.90
9975;DHT22;5028;50.974;4.968;2023-07-13T08:41:24;21.40;99.90
9975;DHT22;5028;50.974;4.968;2023-07-13T08:43:56;21.60;99.90
9975;DHT22;5028;50.974;4.968;2023-07-13T08:46:29;21.80;99.90
9975;DHT22;5028;50.974;4.968;2023-07-13T08:49:05;21.90;99.90
9975;DHT22;5028;50.974;4.968;2023-07-13T08:51:40;22.00;99.90
9975;DHT22;5028;50.974;4.968;2023-07-13T08:54:19;22.30;99.90
9975;DHT22;5028;50.974;4.968;2023-07-13T08:56:50;22.70;99.90
9975;DHT22;5028;50.974;4.968;2023-07-13T08:59:24;22.70;99.90
9975;DHT22;5028;50.974;4.968;2023-07-13T09:02:21;22.40;99.90
9975;DHT22;5028;50.974;4.968;2023-07-13T09:04:54;22.40;99.90
9975;DHT22;5028;50.974;4.968;2023-07-13T09:07:38;22.60;99.90
9975;DHT22;5028;50.974;4.968;2023-07-13T09:10:15;22.80;99.90
9975;DHT22;5028;50.974;4.968;2023-07-13T09:12:57;22.90;99.90
9975;DHT22;5028;50.974;4.968;2023-07-13T09:15:31;23.10;99.90
9975;DHT22;5028;50.974;4.968;2023-07-13T09:18:04;23.10;99.90
9975;DHT22;5028;50.974;4.968;2023-07-13T09:20:37;22.90;99.90
9975;DHT22;5028;50.974;4.968;2023-07-13T09:23:15;22.80;99.90
9975;DHT22;5028;50.974;4.968;2023-07-13T09:25:46;22.80;99.90
9975;DHT22;5028;50.974;4.968;2023-07-13T09:28:24;22.90;99.90
9975;DHT22;5028;50.974;4.968;2023-07-13T09:31:00;23.10;99.90
9975;DHT22;5028;50.974;4.968;2023-07-13T09:33:38;23.70;99.90
9975;DHT22;5028;50.974;4.968;2023-07-13T09:36:19;23.90;99.90
9975;DHT22;5028;50.974;4.968;2023-07-13T09:38:52;23.70;99.90
9975;DHT22;5028;50.974;4.968;2023-07-13T09:41:28;23.70;99.90
9975;DHT22;5028;50.974;4.968;2023-07-13T09:44:07;23.90;99.90
9975;DHT22;5028;50.974;4.968;2023-07-13T09:46:44;23.80;99.90
9975;DHT22;5028;50.974;4.968;2023-07-13T09:49:14;23.40;99.90
9975;DHT22;5028;50.974;4.968;2023-07-13T09:51:44;23.20;99.90
9975;DHT22;5028;50.974;4.968;2023-07-13T09:54:20;23.10;99.90
9975;DHT22;5028;50.974;4.968;2023-07-13T09:56:54;22.90;99.90
9975;DHT22;5028;50.974;4.968;2023-07-13T09:59:26;23.00;99.90
9975;DHT22;5028;50.974;4.968;2023-07-13T10:01:57;23.50;99.90
9975;DHT22;5028;50.974;4.968;2023-07-13T10:04:30;24.00;99.90
9975;DHT22;5028;50.974;4.968;2023-07-13T10:07:07;24.50;99.90
9975;DHT22;5028;50.974;4.968;2023-07-13T10:09:56;24.90;99.90
9975;DHT22;5028;50.974;4.968;2023-07-13T10:12:25;25.20;99.90
9975;DHT22;5028;50.974;4.968;2023-07-13T10:14:56;24.90;99.90
9975;DHT22;5028;50.974;4.968;2023-07-13T10:17:47;24.40;99.90
9975;DHT22;5028;50.974;4.968;2023-07-13T10:20:16;24.30;99.90
9975;DHT22;5028;50.974;4.968;2023-07-13T10:22:50;24.00;99.90
9975;DHT22;5028;50.974;4.968;2023-07-13T10:25:23;24.40;99.90
9975;DHT22;5028;50.974;4.968;2023-07-13T10:27:54;24.80;99.90
9975;DHT22;5028;50.974;4.968;2023-07-13T10:30:28;24.90;99.90
9975;DHT22;5028;50.974;4.968;2023-07-13T10:33:02;25.00;99.90
9975;DHT22;5028;50.974;4.968;2023-07-13T10:35:33;25.10;99.90
9975;DHT22;5028;50.974;4.968;2023-07-13T10:38:05;25.40;99.90
9975;DHT22;5028;50.974;4.968;2023-07-13T10:40:39;25.80;99.90
9975;DHT22;5028;50.974;4.968;2023-07-13T10:43:14;26.00;99.90
9975;DHT22;5028;50.974;4.968;2023-07-13T10:45:47;26.30;99.90
9975;DHT22;5028;50.974;4.968;2023-07-13T10:48:19;26.30;99.90
9975;DHT22;5028;50.974;4.968;2023-07-13T10:50:52;26.30;99.90
9975;DHT22;5028;50.974;4.968;2023-07-13T10:53:28;26.70;99.90
9975;DHT22;5028;50.974;4.968;2023-07-13T10:56:01;26.80;99.90
9975;DHT22;5028;50.974;4.968;2023-07-13T10:58:34;27.00;99.90
9975;DHT22;5028;50.974;4.968;2023-07-13T11:01:07;27.00;99.90
9975;DHT22;5028;50.974;4.968;2023-07-13T11:03:49;27.00;99.90
9975;DHT22;5028;50.974;4.968;2023-07-13T11:06:32;26.80;99.90
9975;DHT22;5028;50.974;4.968;2023-07-13T11:09:19;26.20;99.90
9975;DHT22;5028;50.974;4.968;2023-07-13T11:11:48;25.90;99.90
9975;DHT22;5028;50.974;4.968;2023-07-13T11:14:29;25.80;99.90
9975;DHT22;5028;50.974;4.968;2023-07-13T11:16:58;25.50;99.90
9975;DHT22;5028;50.974;4.968;2023-07-13T11:19:51;25.10;99.90
9975;DHT22;5028;50.974;4.968;2023-07-13T11:22:25;24.90;99.90
9975;DHT22;5028;50.974;4.968;2023-07-13T11:25:30;24.50;99.90
9975;DHT22;5028;50.974;4.968;2023-07-13T11:28:15;24.20;99.90
9975;DHT22;5028;50.974;4.968;2023-07-13T11:30:48;24.10;99.90
9975;DHT22;5028;50.974;4.968;2023-07-13T11:33:20;23.90;99.90
9975;DHT22;5028;50.974;4.968;2023-07-13T11:35:58;23.80;99.90
9975;DHT22;5028;50.974;4.968;2023-07-13T11:38:32;23.90;99.90
9975;DHT22;5028;50.974;4.968;2023-07-13T11:41:04;24.40;99.90
9975;DHT22;5028;50.974;4.968;2023-07-13T11:43:33;24.70;99.90
9975;DHT22;5028;50.974;4.968;2023-07-13T11:46:15;24.70;99.90
9975;DHT22;5028;50.974;4.968;2023-07-13T11:48:45;24.60;99.90
9975;DHT22;5028;50.974;4.968;2023-07-13T11:51:21;24.70;99.90
9975;DHT22;5028;50.974;4.968;2023-07-13T11:53:51;25.00;99.90
9975;DHT22;5028;50.974;4.968;2023-07-13T11:56:24;24.70;99.90
9975;DHT22;5028;50.974;4.968;2023-07-13T11:58:56;24.40;99.90
9975;DHT22;5028;50.974;4.968;2023-07-13T12:01:28;24.70;99.90
9975;DHT22;5028;50.974;4.968;2023-07-13T12:04:02;24.90;99.90
9975;DHT22;5028;50.974;4.968;2023-07-13T12:06:34;24.80;99.90
9975;DHT22;5028;50.974;4.968;2023-07-13T12:09:12;24.50;99.90
9975;DHT22;5028;50.974;4.968;2023-07-13T12:11:43;24.10;99.90
9975;DHT22;5028;50.974;4.968;2023-07-13T12:14:14;24.00;99.90
9975;DHT22;5028;50.974;4.968;2023-07-13T12:16:44;23.90;99.90
9975;DHT22;5028;50.974;4.968;2023-07-13T12:19:18;23.90;99.90
9975;DHT22;5028;50.974;4.968;2023-07-13T12:21:52;24.10;99.90
9975;DHT22;5028;50.974;4.968;2023-07-13T12:24:22;24.30;99.90
9975;DHT22;5028;50.974;4.968;2023-07-13T12:26:52;24.20;99.90
9975;DHT22;5028;50.974;4.968;2023-07-13T12:29:21;23.90;99.90
9975;DHT22;5028;50.974;4.968;2023-07-13T12:31:50;23.70;99.90
9975;DHT22;5028;50.974;4.968;2023-07-13T12:34:21;23.50;99.90
9975;DHT22;5028;50.974;4.968;2023-07-13T12:36:55;23.40;99.90
9975;DHT22;5028;50.974;4.968;2023-07-13T12:39:34;23.30;99.90
9975;DHT22;5028;50.974;4.968;2023-07-13T12:42:18;23.10;99.90
9975;DHT22;5028;50.974;4.968;2023-07-13T12:44:53;22.80;99.90
9975;DHT22;5028;50.974;4.968;2023-07-13T12:47:22;22.30;99.90
9975;DHT22;5028;50.974;4.968;2023-07-13T12:49:54;21.80;99.90
9975;DHT22;5028;50.974;4.968;2023-07-13T12:52:30;21.10;99.90
9975;DHT22;5028;50.974;4.968;2023-07-13T12:55:05;20.30;99.90
9975;DHT22;5028;50.974;4.968;2023-07-13T12:57:40;19.50;99.90
9975;DHT22;5028;50.974;4.968;2023-07-13T13:00:23;18.40;99.90
9975;DHT22;5028;50.974;4.968;2023-07-13T13:02:53;18.00;99.90
9975;DHT22;5028;50.974;4.968;2023-07-13T13:05:44;18.10;99.90
9975;DHT22;5028;50.974;4.968;2023-07-13T13:08:14;18.10;99.90
9975;DHT22;5028;50.974;4.968;2023-07-13T13:10:43;17.90;99.90
9975;DHT22;5028;50.974;4.968;2023-07-13T13:13:12;17.80;99.90
9975;DHT22;5028;50.974;4.968;2023-07-13T13:15:41;17.80;99.90
9975;DHT22;5028;50.974;4.968;2023-07-13T13:18:16;17.90;99.90
9975;DHT22;5028;50.974;4.968;2023-07-13T13:20:46;17.90;99.90
9975;DHT22;5028;50.974;4.968;2023-07-13T13:23:18;17.80;99.90
9975;DHT22;5028;50.974;4.968;2023-07-13T13:25:49;17.80;99.90
9975;DHT22;5028;50.974;4.968;2023-07-13T13:28:19;17.80;99.90
9975;DHT22;5028;50.974;4.968;2023-07-13T13:30:49;18.00;99.90
9975;DHT22;5028;50.974;4.968;2023-07-13T13:33:20;18.10;99.90
9975;DHT22;5028;50.974;4.968;2023-07-13T13:35:50;18.20;99.90
9975;DHT22;5028;50.974;4.968;2023-07-13T13:38:26;18.30;99.90
9975;DHT22;5028;50.974;4.968;2023-07-13T13:40:56;18.30;99.90
9975;DHT22;5028;50.974;4.968;2023-07-13T13:43:25;18.30;99.90
9975;DHT22;5028;50.974;4.968;2023-07-13T13:45:56;18.40;99.90
9975;DHT22;5028;50.974;4.968;2023-07-13T13:48:29;18.40;99.90
9975;DHT22;5028;50.974;4.968;2023-07-13T13:50:59;18.50;99.90
9975;DHT22;5028;50.974;4.968;2023-07-13T13:53:30;18.60;99.90
9975;DHT22;5028;50.974;4.968;2023-07-13T13:55:58;18.60;99.90
9975;DHT22;5028;50.974;4.968;2023-07-13T13:58:27;18.60;99.90
9975;DHT22;5028;50.974;4.968;2023-07-13T14:00:57;18.60;99.90
9975;DHT22;5028;50.974;4.968;2023-07-13T14:03:26;18.70;99.90
9975;DHT22;5028;50.974;4.968;2023-07-13T14:05:55;18.70;99.90
9975;DHT22;5028;50.974;4.968;2023-07-13T14:08:24;18.70;99.90
9975;DHT22;5028;50.974;4.968;2023-07-13T14:10:56;18.90;99.90
9975;DHT22;5028;50.974;4.968;2023-07-13T14:13:28;19.00;99.90
9975;DHT22;5028;50.974;4.968;2023-07-13T14:15:59;19.10;99.90
9975;DHT22;5028;50.974;4.968;2023-07-13T14:18:27;19.10;99.90
9975;DHT22;5028;50.974;4.968;2023-07-13T14:20:56;19.30;99.90
9975;DHT22;5028;50.974;4.968;2023-07-13T14:23:25;19.40;99.90
9975;DHT22;5028;50.974;4.968;2023-07-13T14:25:55;19.50;99.90
9975;DHT22;5028;50.974;4.968;2023-07-13T14:28:25;19.50;99.90
9975;DHT22;5028;50.974;4.968;2023-07-13T14:30:55;19.70;99.90
9975;DHT22;5028;50.974;4.968;2023-07-13T14:33:24;19.70;99.90
9975;DHT22;5028;50.974;4.968;2023-07-13T14:35:53;19.80;99.90
9975;DHT22;5028;50.974;4.968;2023-07-13T14:38:22;19.90;99.90
9975;DHT22;5028;50.974;4.968;2023-07-13T14:40:51;20.10;99.90
9975;DHT22;5028;50.974;4.968;2023-07-13T14:43:21;20.20;99.90
9975;DHT22;5028;50.974;4.968;2023-07-13T14:45:51;20.50;99.90
9975;DHT22;5028;50.974;4.968;2023-07-13T14:48:24;21.00;99.90
9975;DHT22;5028;50.974;4.968;2023-07-13T14:50:55;21.40;99.90
9975;DHT22;5028;50.974;4.968;2023-07-13T14:53:25;21.70;99.90
9975;DHT22;5028;50.974;4.968;2023-07-13T14:55:55;22.10;99.90
9975;DHT22;5028;50.974;4.968;2023-07-13T14:58:26;22.30;99.90
9975;DHT22;5028;50.974;4.968;2023-07-13T15:00:57;22.50;99.90
9975;DHT22;5028;50.974;4.968;2023-07-13T15:03:26;22.60;99.90
9975;DHT22;5028;50.974;4.968;2023-07-13T15:05:55;22.70;99.90
9975;DHT22;5028;50.974;4.968;2023-07-13T15:08:24;23.00;99.90
9975;DHT22;5028;50.974;4.968;2023-07-13T15:10:53;23.10;99.90
9975;DHT22;5028;50.974;4.968;2023-07-13T15:13:26;22.90;99.90
9975;DHT22;5028;50.974;4.968;2023-07-13T15:15:56;22.80;99.90
9975;DHT22;5028;50.974;4.968;2023-07-13T15:18:25;22.70;99.90
9975;DHT22;5028;50.974;4.968;2023-07-13T15:20:54;22.70;99.90
9975;DHT22;5028;50.974;4.968;2023-07-13T15:23:24;22.80;99.90
9975;DHT22;5028;50.974;4.968;2023-07-13T15:25:53;22.70;99.90
9975;DHT22;5028;50.974;4.968;2023-07-13T15:28:22;22.80;99.90
9975;DHT22;5028;50.974;4.968;2023-07-13T15:30:53;22.90;99.90
9975;DHT22;5028;50.974;4.968;2023-07-13T15:33:24;22.90;99.90
9975;DHT22;5028;50.974;4.968;2023-07-13T15:35:54;22.80;99.90
9975;DHT22;5028;50.974;4.968;2023-07-13T15:38:27;22.90;99.90
9975;DHT22;5028;50.974;4.968;2023-07-13T15:40:56;22.80;99.90
9975;DHT22;5028;50.974;4.968;2023-07-13T15:43:26;22.80;99.90
9975;DHT22;5028;50.974;4.968;2023-07-13T15:45:56;22.70;99.90
9975;DHT22;5028;50.974;4.968;2023-07-13T15:48:26;22.70;99.90
9975;DHT22;5028;50.974;4.968;2023-07-13T15:51:00;22.80;99.90
9975;DHT22;5028;50.974;4.968;2023-07-13T15:53:31;22.90;99.90
9975;DHT22;5028;50.974;4.968;2023-07-13T15:56:02;23.00;99.90
9975;DHT22;5028;50.974;4.968;2023-07-13T15:58:31;23.00;99.90
9975;DHT22;5028;50.974;4.968;2023-07-13T16:01:02;23.10;99.90
9975;DHT22;5028;50.974;4.968;2023-07-13T16:03:31;23.20;99.90
9975;DHT22;5028;50.974;4.968;2023-07-13T16:05:59;23.10;99.90
9975;DHT22;5028;50.974;4.968;2023-07-13T16:08:31;23.20;99.90
9975;DHT22;5028;50.974;4.968;2023-07-13T16:11:00;23.20;99.90
9975;DHT22;5028;50.974;4.968;2023-07-13T16:13:29;23.00;99.90
9975;DHT22;5028;50.974;4.968;2023-07-13T16:15:59;23.10;99.90
9975;DHT22;5028;50.974;4.968;2023-07-13T16:18:30;23.10;99.90
9975;DHT22;5028;50.974;4.968;2023-07-13T16:20:58;22.90;99.90
9975;DHT22;5028;50.974;4.968;2023-07-13T16:23:29;22.80;99.90
9975;DHT22;5028;50.974;4.968;2023-07-13T16:26:00;22.70;99.90
9975;DHT22;5028;50.974;4.968;2023-07-13T16:28:30;22.70;99.90